createdAt,value
2022-09-29T00:01:13.167Z,42.40
2022-09-29T00:03:41.145Z,42.60
2022-09-29T00:06:15.043Z,42.60
2022-09-29T00:08:43.426Z,42.90
2022-09-29T00:11:13.273Z,42.20
2022-09-29T00:13:43.109Z,42.50
2022-09-29T00:16:11.843Z,42.60
2022-09-29T00:18:40.429Z,42.30
2022-09-29T00:21:13.864Z,42.50
2022-09-29T00:23:41.886Z,42.80
2022-09-29T00:26:13.254Z,42.80
2022-09-29T00:28:48.385Z,43.00
2022-09-29T00:31:16.839Z,43.40
2022-09-29T00:33:45.058Z,43.30
2022-09-29T00:36:16.245Z,43.30
2022-09-29T00:38:46.723Z,43.80
2022-09-29T00:41:18.055Z,43.60
2022-09-29T00:43:55.684Z,43.70
2022-09-29T00:46:32.579Z,43.40
2022-09-29T00:49:05.666Z,43.80
2022-09-29T00:51:36.000Z,43.50
2022-09-29T00:54:04.600Z,43.50
2022-09-29T00:56:33.291Z,43.70
2022-09-29T00:59:08.506Z,43.80
2022-09-29T01:01:36.935Z,43.90
2022-09-29T01:04:10.354Z,43.90
2022-09-29T01:06:42.941Z,44.00
2022-09-29T01:09:14.295Z,44.00
2022-09-29T01:11:42.993Z,44.70
2022-09-29T01:14:12.812Z,44.40
2022-09-29T01:16:43.255Z,44.50
2022-09-29T01:19:15.969Z,44.40
2022-09-29T01:21:56.634Z,44.50
2022-09-29T01:24:57.152Z,44.40
2022-09-29T01:27:45.513Z,44.50
2022-09-29T01:30:20.671Z,44.70
2022-09-29T01:33:08.926Z,44.40
2022-09-29T01:35:49.737Z,44.60
2022-09-29T01:38:32.712Z,44.60
2022-09-29T01:41:09.489Z,44.50
2022-09-29T01:43:44.327Z,44.40
2022-09-29T01:46:17.890Z,44.70
2022-09-29T01:48:51.701Z,44.50
2022-09-29T01:51:24.440Z,44.90
2022-09-29T01:53:56.635Z,45.10
2022-09-29T01:56:33.563Z,45.00
2022-09-29T01:59:06.715Z,45.00
2022-09-29T02:01:42.285Z,45.00
2022-09-29T02:04:17.839Z,45.30
2022-09-29T02:06:50.473Z,45.10
2022-09-29T02:09:25.392Z,45.30
2022-09-29T02:11:55.012Z,45.40
2022-09-29T02:14:26.732Z,45.40
2022-09-29T02:17:05.340Z,45.50
2022-09-29T02:19:38.065Z,45.10
2022-09-29T02:22:06.161Z,45.80
2022-09-29T02:24:34.133Z,45.70
2022-09-29T02:27:04.106Z,45.80
2022-09-29T02:29:33.920Z,44.50
2022-09-29T02:32:02.859Z,45.80
2022-09-29T02:34:34.984Z,44.90
2022-09-29T02:37:15.243Z,45.70
2022-09-29T02:39:56.336Z,45.80
2022-09-29T02:42:33.220Z,46.10
2022-09-29T02:45:20.367Z,46.10
2022-09-29T02:48:07.644Z,46.20
2022-09-29T02:50:50.276Z,46.10
2022-09-29T02:53:34.047Z,46.10
2022-09-29T02:56:12.601Z,46.40
2022-09-29T02:58:48.419Z,46.40
2022-09-29T03:01:17.179Z,46.30
2022-09-29T03:03:45.282Z,46.30
2022-09-29T03:06:15.991Z,46.10
2022-09-29T03:08:43.959Z,46.20
2022-09-29T03:11:11.936Z,47.10
2022-09-29T03:13:39.955Z,46.20
2022-09-29T03:16:08.231Z,47.30
2022-09-29T03:18:36.385Z,46.30
2022-09-29T03:21:04.465Z,46.40
2022-09-29T03:23:33.730Z,46.40
2022-09-29T03:26:01.688Z,46.60
2022-09-29T03:28:29.713Z,46.70
2022-09-29T03:30:57.913Z,46.80
2022-09-29T03:33:25.902Z,47.00
2022-09-29T03:35:53.823Z,47.00
2022-09-29T03:38:21.766Z,47.20
2022-09-29T03:40:51.108Z,47.20
2022-09-29T03:43:19.077Z,47.00
2022-09-29T03:45:50.514Z,47.40
2022-09-29T03:48:21.890Z,47.50
2022-09-29T03:50:53.744Z,47.50
2022-09-29T03:53:21.735Z,47.60
2022-09-29T03:55:51.751Z,47.60
2022-09-29T03:58:20.579Z,47.50
2022-09-29T04:00:49.892Z,47.60
2022-09-29T04:03:17.923Z,47.70
2022-09-29T04:05:46.629Z,47.70
2022-09-29T04:08:15.285Z,46.80
2022-09-29T04:10:43.727Z,47.10
2022-09-29T04:13:16.501Z,47.90
2022-09-29T04:15:47.064Z,47.40
2022-09-29T04:18:15.162Z,47.30
2022-09-29T04:20:43.087Z,47.90
2022-09-29T04:23:11.026Z,48.40
2022-09-29T04:25:38.916Z,48.00
2022-09-29T04:28:06.861Z,47.90
2022-09-29T04:30:36.153Z,47.50
2022-09-29T04:33:04.325Z,47.50
2022-09-29T04:35:36.642Z,48.00
2022-09-29T04:38:04.938Z,47.80
2022-09-29T04:40:32.871Z,48.10
2022-09-29T04:43:00.878Z,47.90
2022-09-29T04:45:29.067Z,48.10
2022-09-29T04:47:58.751Z,48.30
2022-09-29T04:50:26.750Z,48.10
2022-09-29T04:52:54.741Z,47.70
2022-09-29T04:55:22.763Z,48.20
2022-09-29T04:57:50.832Z,48.10
2022-09-29T05:00:18.912Z,48.30
2022-09-29T05:02:49.795Z,48.40
2022-09-29T05:05:19.540Z,48.20
2022-09-29T05:07:48.114Z,48.00
2022-09-29T05:10:16.318Z,48.70
2022-09-29T05:12:50.538Z,48.50
2022-09-29T05:15:23.563Z,48.60
2022-09-29T05:17:53.673Z,48.60
2022-09-29T05:20:23.060Z,48.30
2022-09-29T05:22:51.011Z,48.70
2022-09-29T05:25:18.943Z,48.70
2022-09-29T05:27:46.936Z,48.90
2022-09-29T05:30:15.004Z,49.30
2022-09-29T05:32:44.270Z,49.00
2022-09-29T05:35:12.324Z,48.00
2022-09-29T05:37:41.610Z,48.50
2022-09-29T05:40:10.869Z,49.00
2022-09-29T05:42:40.359Z,48.90
2022-09-29T05:45:10.148Z,48.30
2022-09-29T05:47:38.126Z,48.50
2022-09-29T05:50:07.321Z,48.70
2022-09-29T05:52:35.262Z,48.50
2022-09-29T05:55:05.379Z,48.70
2022-09-29T05:57:33.398Z,48.90
2022-09-29T06:00:01.694Z,49.00
2022-09-29T06:02:29.826Z,48.50
2022-09-29T06:04:57.819Z,48.90
2022-09-29T06:07:25.956Z,48.30
2022-09-29T06:09:53.915Z,47.40
2022-09-29T06:12:23.259Z,44.70
2022-09-29T06:14:51.279Z,43.80
2022-09-29T06:17:19.248Z,42.40
2022-09-29T06:19:47.207Z,41.50
2022-09-29T06:22:15.179Z,40.40
2022-09-29T06:24:43.161Z,40.00
2022-09-29T06:27:11.433Z,39.80
2022-09-29T06:29:40.760Z,39.30
2022-09-29T06:32:08.774Z,38.80
2022-09-29T06:34:58.654Z,38.40
2022-09-29T06:37:34.886Z,37.90
2022-09-29T06:40:05.700Z,38.50
2022-09-29T06:42:36.080Z,36.30
2022-09-29T06:45:06.613Z,36.80
2022-09-29T06:47:34.581Z,36.40
2022-09-29T06:50:08.815Z,35.90
2022-09-29T06:53:02.372Z,37.30
2022-09-29T06:55:31.747Z,38.80
2022-09-29T06:58:03.787Z,38.80
2022-09-29T07:00:34.510Z,38.30
2022-09-29T07:03:02.801Z,38.50
2022-09-29T07:05:32.028Z,38.80
2022-09-29T07:08:01.281Z,38.40
2022-09-29T07:10:29.801Z,37.90
2022-09-29T07:12:57.879Z,38.00
2022-09-29T07:16:48.847Z,36.30
2022-09-29T07:19:18.281Z,36.90
2022-09-29T07:21:46.604Z,36.90
2022-09-29T07:24:14.749Z,37.10
2022-09-29T07:26:43.140Z,36.20
2022-09-29T07:29:15.488Z,36.40
2022-09-29T07:31:50.734Z,35.90
2022-09-29T07:34:22.114Z,35.40
2022-09-29T07:36:51.015Z,34.80
2022-09-29T07:39:21.688Z,34.20
2022-09-29T07:41:49.793Z,33.70
2022-09-29T07:44:18.017Z,33.40
2022-09-29T07:46:45.963Z,32.80
2022-09-29T07:49:13.940Z,32.70
2022-09-29T07:51:43.324Z,32.10
2022-09-29T07:54:11.271Z,31.70
2022-09-29T07:56:39.341Z,31.70
2022-09-29T07:59:07.377Z,31.50
2022-09-29T08:01:36.004Z,31.40
2022-09-29T08:04:04.212Z,31.70
2022-09-29T08:06:32.527Z,30.80
2022-09-29T08:09:05.162Z,30.20
2022-09-29T08:11:34.661Z,30.40
2022-09-29T08:14:03.156Z,29.40
2022-09-29T08:16:32.368Z,29.70
2022-09-29T08:19:00.976Z,29.90
2022-09-29T08:21:29.765Z,30.60
2022-09-29T08:23:57.733Z,29.60
2022-09-29T08:26:40.543Z,29.70
2022-09-29T08:29:14.398Z,29.40
2022-09-29T08:31:44.357Z,29.40
2022-09-29T08:34:13.358Z,28.90
2022-09-29T08:36:41.666Z,28.30
2022-09-29T08:39:12.844Z,28.80
2022-09-29T08:41:54.657Z,28.10
2022-09-29T08:44:38.865Z,27.70
2022-09-29T08:47:18.113Z,27.60
2022-09-29T08:49:50.891Z,27.90
2022-09-29T08:52:24.176Z,27.10
2022-09-29T08:54:58.453Z,27.50
2022-09-29T08:57:28.115Z,27.70
2022-09-29T08:59:59.375Z,27.50
2022-09-29T09:02:59.390Z,27.70
2022-09-29T09:05:46.562Z,28.00
2022-09-29T09:08:31.683Z,28.00
2022-09-29T09:11:09.877Z,26.90
2022-09-29T09:13:58.246Z,27.50
2022-09-29T09:16:38.549Z,27.50
2022-09-29T09:19:51.413Z,27.10
2022-09-29T09:22:24.723Z,27.10
2022-09-29T09:25:02.629Z,27.10
2022-09-29T09:27:37.869Z,27.20
2022-09-29T09:30:15.047Z,27.20
2022-09-29T09:32:49.595Z,27.20
2022-09-29T09:35:30.434Z,27.20
2022-09-29T09:38:03.657Z,27.30
2022-09-29T09:40:41.649Z,27.40
2022-09-29T09:43:18.409Z,27.30
2022-09-29T09:45:54.851Z,27.20
2022-09-29T09:48:32.025Z,27.00
2022-09-29T09:51:03.476Z,27.20
2022-09-29T09:53:37.920Z,27.30
2022-09-29T09:56:14.776Z,27.10
2022-09-29T09:59:04.183Z,27.30
2022-09-29T10:01:33.829Z,27.10
2022-09-29T10:04:02.948Z,27.30
2022-09-29T10:06:31.069Z,27.50
2022-09-29T10:08:59.133Z,27.20
2022-09-29T10:11:30.558Z,27.00
2022-09-29T10:14:04.613Z,27.90
2022-09-29T10:16:42.342Z,27.30
2022-09-29T10:19:11.212Z,26.80
2022-09-29T10:21:41.865Z,27.40
2022-09-29T10:24:25.213Z,27.20
2022-09-29T10:26:57.518Z,27.10
2022-09-29T10:29:33.078Z,27.20
2022-09-29T10:32:06.801Z,27.40
2022-09-29T10:34:37.926Z,27.10
2022-09-29T10:37:18.219Z,26.80
2022-09-29T10:39:48.278Z,27.00
2022-09-29T10:42:22.044Z,26.60
2022-09-29T10:44:55.163Z,26.90
2022-09-29T10:47:24.578Z,26.50
2022-09-29T10:50:16.044Z,26.60
2022-09-29T10:52:48.829Z,26.90
2022-09-29T10:55:26.417Z,26.70
2022-09-29T10:57:58.277Z,26.90
2022-09-29T11:00:29.614Z,27.20
2022-09-29T11:03:08.121Z,27.40
2022-09-29T11:05:37.673Z,26.70
2022-09-29T11:08:05.780Z,27.30
2022-09-29T11:10:37.102Z,27.60
2022-09-29T11:13:37.250Z,27.50
2022-09-29T11:16:12.878Z,28.30
2022-09-29T11:18:44.111Z,28.20
2022-09-29T11:22:06.376Z,27.70
2022-09-29T11:25:00.519Z,27.80
2022-09-29T11:27:42.371Z,27.40
2022-09-29T11:30:17.356Z,27.60
2022-09-29T11:33:07.869Z,27.60
2022-09-29T11:35:47.281Z,27.70
2022-09-29T11:38:40.420Z,28.20
2022-09-29T11:41:27.929Z,27.60
2022-09-29T11:44:02.561Z,27.10
2022-09-29T11:46:49.859Z,26.70
2022-09-29T11:49:47.467Z,27.20
2022-09-29T11:52:50.673Z,26.60
2022-09-29T11:55:33.744Z,27.10
2022-09-29T11:58:19.825Z,27.20
2022-09-29T12:01:09.317Z,27.40
2022-09-29T12:03:45.020Z,26.40
2022-09-29T12:06:37.356Z,27.00
2022-09-29T12:09:30.259Z,26.70
2022-09-29T12:12:23.002Z,26.90
2022-09-29T12:15:09.220Z,26.70
2022-09-29T12:17:41.161Z,26.60
2022-09-29T12:20:19.979Z,25.60
2022-09-29T12:22:51.074Z,25.50
2022-09-29T12:25:25.833Z,26.40
2022-09-29T12:28:00.036Z,26.40
2022-09-29T12:30:31.149Z,26.10
2022-09-29T12:33:04.385Z,25.80
2022-09-29T12:35:39.629Z,26.50
2022-09-29T12:38:18.313Z,26.40
2022-09-29T12:41:02.430Z,25.60
2022-09-29T12:43:34.134Z,26.00
2022-09-29T12:46:11.154Z,26.00
2022-09-29T12:48:53.402Z,25.90
2022-09-29T12:51:29.541Z,25.60
2022-09-29T12:54:13.816Z,26.10
2022-09-29T12:56:49.844Z,26.10
2022-09-29T12:59:29.926Z,25.80
2022-09-29T13:01:58.749Z,26.40
2022-09-29T13:05:01.975Z,26.40
2022-09-29T13:08:02.205Z,26.30
2022-09-29T13:11:01.988Z,26.60
2022-09-29T13:14:04.273Z,26.70
2022-09-29T13:16:46.387Z,26.60
2022-09-29T13:19:57.714Z,25.90
2022-09-29T13:22:48.494Z,26.30
2022-09-29T13:25:25.244Z,26.40
2022-09-29T13:27:55.829Z,26.90
2022-09-29T13:30:29.192Z,26.30
2022-09-29T13:33:08.963Z,26.80
2022-09-29T15:39:54.317Z,26.40
2022-09-29T15:42:24.425Z,26.30
2022-09-29T15:44:57.680Z,25.40
2022-09-29T15:47:36.260Z,25.80
2022-09-29T15:50:07.166Z,26.20
2022-09-29T15:52:35.475Z,26.50
2022-09-29T15:55:05.667Z,26.40
2022-09-29T15:57:43.280Z,26.50
2022-09-29T16:00:57.289Z,27.30
2022-09-29T16:03:31.638Z,26.00
2022-09-29T16:06:06.293Z,26.80
2022-09-29T16:08:39.795Z,25.90
2022-09-29T16:11:20.477Z,26.30
2022-09-29T16:13:55.036Z,26.10
2022-09-29T16:16:31.060Z,25.70
2022-09-29T16:19:09.864Z,24.90
2022-09-29T16:21:39.409Z,26.00
2022-09-29T16:24:15.343Z,25.70
2022-09-29T16:26:47.875Z,25.50
2022-09-29T16:29:33.254Z,24.90
2022-09-29T16:32:42.513Z,25.50
2022-09-29T16:35:41.180Z,24.20
2022-09-29T16:38:25.309Z,23.00
2022-09-29T16:40:56.653Z,24.00
2022-09-29T16:43:30.537Z,24.40
2022-09-29T16:46:01.604Z,24.50
2022-09-29T16:48:33.223Z,24.50
2022-09-29T16:51:08.403Z,24.50
2022-09-29T16:53:40.608Z,24.20
2022-09-29T16:56:20.254Z,24.40
2022-09-29T16:59:07.569Z,24.10
2022-09-29T17:01:35.629Z,24.50
2022-09-29T17:04:03.770Z,24.50
2022-09-29T17:06:32.029Z,24.10
2022-09-29T17:09:00.486Z,24.80
2022-09-29T17:11:28.813Z,24.90
2022-09-29T17:13:58.412Z,25.40
2022-09-29T17:16:27.342Z,25.10
2022-09-29T17:18:56.217Z,25.30
2022-09-29T17:21:24.920Z,25.00
2022-09-29T17:23:54.362Z,25.40
2022-09-29T17:26:48.068Z,25.30
2022-09-29T17:29:17.385Z,25.50
2022-09-29T17:31:45.403Z,25.60
2022-09-29T17:34:13.726Z,25.30
2022-09-29T17:36:41.851Z,25.60
2022-09-29T17:39:10.365Z,25.80
2022-09-29T17:41:40.567Z,26.70
2022-09-29T17:44:11.741Z,26.80
2022-09-29T17:46:41.153Z,27.10
2022-09-29T17:49:12.551Z,26.90
2022-09-29T17:51:40.583Z,27.90
2022-09-29T17:54:08.625Z,28.00
2022-09-29T17:56:43.274Z,28.40
2022-09-29T17:59:12.146Z,29.20
2022-09-29T18:01:41.528Z,29.80
2022-09-29T18:04:12.066Z,28.70
2022-09-29T18:06:41.993Z,30.20
2022-09-29T18:09:16.924Z,29.40
2022-09-29T18:11:45.948Z,28.80
2022-09-29T18:14:13.889Z,29.00
2022-09-29T18:16:43.198Z,28.90
2022-09-29T18:19:17.853Z,28.60
2022-09-29T18:21:46.348Z,28.40
2022-09-29T18:24:15.619Z,28.80
2022-09-29T18:26:46.272Z,28.60
2022-09-29T18:29:18.919Z,28.90
2022-09-29T18:31:48.397Z,29.10
2022-09-29T18:34:19.329Z,29.00
2022-09-29T18:36:47.544Z,29.20
2022-09-29T18:39:15.807Z,28.60
2022-09-29T18:41:43.786Z,29.20
2022-09-29T18:44:16.122Z,29.10
2022-09-29T18:46:45.423Z,29.30
2022-09-29T18:49:15.767Z,29.40
2022-09-29T18:51:44.383Z,29.70
2022-09-29T18:54:13.286Z,30.10
2022-09-29T18:56:41.370Z,30.70
2022-09-29T18:59:12.702Z,30.60
2022-09-29T19:01:41.766Z,30.80
2022-09-29T19:04:10.546Z,31.50
2022-09-29T19:06:39.849Z,31.10
2022-09-29T19:09:07.815Z,31.40
2022-09-29T19:11:35.793Z,32.00
2022-09-29T19:14:03.821Z,31.70
2022-09-29T19:16:34.013Z,32.40
2022-09-29T19:19:04.243Z,33.00
2022-09-29T19:21:33.209Z,32.20
2022-09-29T19:24:02.831Z,32.20
2022-09-29T19:26:31.200Z,32.80
2022-09-29T19:28:59.315Z,32.90
2022-09-29T19:31:27.582Z,32.90
2022-09-29T19:33:57.337Z,32.90
2022-09-29T19:36:25.371Z,33.20
2022-09-29T19:38:53.429Z,33.10
2022-09-29T19:41:25.230Z,33.30
2022-09-29T19:43:53.260Z,33.40
2022-09-29T19:46:22.564Z,33.10
2022-09-29T19:48:50.816Z,33.10
2022-09-29T19:51:37.021Z,33.60
2022-09-29T19:54:18.982Z,32.80
2022-09-29T19:56:53.667Z,33.70
2022-09-29T19:59:26.284Z,33.90
2022-09-29T20:01:54.562Z,34.30
2022-09-29T20:04:29.634Z,34.30
2022-09-29T20:06:59.694Z,34.30
2022-09-29T20:09:28.668Z,34.60
2022-09-29T20:11:58.551Z,34.80
2022-09-29T20:14:28.438Z,34.30
2022-09-29T20:16:58.164Z,34.50
2022-09-29T20:19:27.865Z,35.40
2022-09-29T20:21:57.182Z,34.60
2022-09-29T20:24:25.471Z,35.00
2022-09-29T20:26:57.723Z,35.00
2022-09-29T20:29:29.210Z,35.00
2022-09-29T20:31:57.292Z,35.10
2022-09-29T20:34:25.277Z,35.30
2022-09-29T20:36:55.012Z,35.20
2022-09-29T20:39:25.628Z,35.30
2022-09-29T20:41:54.943Z,35.50
2022-09-29T20:44:25.424Z,35.40
2022-09-29T20:46:55.595Z,35.80
2022-09-29T20:49:24.756Z,35.10
2022-09-29T20:51:52.909Z,36.00
2022-09-29T20:54:22.332Z,35.80
2022-09-29T20:56:50.855Z,36.20
2022-09-29T20:59:23.162Z,36.10
2022-09-29T21:01:53.298Z,36.20
2022-09-29T21:04:23.187Z,36.10
2022-09-29T21:06:53.004Z,36.20
2022-09-29T21:09:24.503Z,36.30
2022-09-29T21:11:54.308Z,36.70
2022-09-29T21:14:27.656Z,36.10
2022-09-29T21:16:56.208Z,36.20
2022-09-29T21:19:25.910Z,36.10
2022-09-29T21:21:54.279Z,36.90
2022-09-29T21:24:22.368Z,36.90
2022-09-29T21:26:50.447Z,37.00
2022-09-29T21:29:20.480Z,36.40
2022-09-29T21:31:48.710Z,36.90
2022-09-29T21:34:17.097Z,37.40
2022-09-29T21:36:46.557Z,37.40
2022-09-29T21:39:15.259Z,37.50
2022-09-29T21:41:45.427Z,37.00
2022-09-29T21:44:16.941Z,37.20
2022-09-29T21:46:45.788Z,37.50
2022-09-29T21:49:16.034Z,37.60
2022-09-29T21:51:48.350Z,37.60
2022-09-29T21:54:19.197Z,37.50
2022-09-29T21:56:48.000Z,37.80
2022-09-29T21:59:19.081Z,37.80
2022-09-29T22:01:48.034Z,37.70
2022-09-29T22:04:16.958Z,37.70
2022-09-29T22:06:46.329Z,37.90
2022-09-29T22:09:18.768Z,37.80
2022-09-29T22:11:49.684Z,38.40
2022-09-29T22:14:18.059Z,38.00
2022-09-29T22:16:46.133Z,38.20
2022-09-29T22:19:23.823Z,38.40
2022-09-29T22:21:54.989Z,38.30
2022-09-29T22:24:26.384Z,38.40
2022-09-29T22:26:54.485Z,38.40
2022-09-29T22:29:22.676Z,38.70
2022-09-29T22:31:50.918Z,38.70
2022-09-29T22:34:18.926Z,39.10
2022-09-29T22:36:47.230Z,38.70
2022-09-29T22:39:16.574Z,38.90
2022-09-29T22:41:44.498Z,38.50
2022-09-29T22:44:13.104Z,38.90
2022-09-29T22:46:41.111Z,39.20
2022-09-29T22:49:09.285Z,39.20
2022-09-29T22:51:37.255Z,39.60
2022-09-29T22:54:05.345Z,39.70
2022-09-29T22:56:35.097Z,39.50
2022-09-29T22:59:05.263Z,39.60
2022-09-29T23:01:34.283Z,39.50
2022-09-29T23:04:03.916Z,39.60
2022-09-29T23:06:32.248Z,40.40
2022-09-29T23:09:00.302Z,40.20
2022-09-29T23:11:28.422Z,40.10
2022-09-29T23:13:57.899Z,40.10
2022-09-29T23:16:25.888Z,40.20
2022-09-29T23:18:58.409Z,39.90
2022-09-29T23:21:27.137Z,40.00
2022-09-29T23:23:57.385Z,40.10
2022-09-29T23:26:26.276Z,40.50
2022-09-29T23:28:55.595Z,40.30
2022-09-29T23:31:25.364Z,40.20
2022-09-29T23:33:55.611Z,40.60
2022-09-29T23:36:25.126Z,40.60
2022-09-29T23:39:10.770Z,40.70
2022-09-29T23:41:42.069Z,40.30
2022-09-29T23:44:12.630Z,40.70
2022-09-29T23:46:43.178Z,40.50
2022-09-29T23:49:14.651Z,40.60
2022-09-29T23:51:45.581Z,41.00
2022-09-29T23:54:16.044Z,41.90
2022-09-29T23:56:44.047Z,40.90
2022-09-29T23:59:12.370Z,41.10
